createdAt,value
2018-04-24T00:02:23.685Z,11.20
2018-04-24T00:04:51.555Z,10.93
2018-04-24T00:07:19.178Z,11.53
2018-04-24T00:09:46.798Z,12.80
2018-04-24T00:12:14.438Z,12.17
2018-04-24T00:14:42.053Z,11.70
2018-04-24T00:17:09.692Z,13.20
2018-04-24T00:19:37.286Z,12.10
2018-04-24T00:22:05.286Z,13.30
2018-04-24T00:24:32.882Z,13.53
2018-04-24T00:27:00.489Z,13.50
2018-04-24T00:29:28.110Z,12.87
2018-04-24T00:31:55.711Z,12.33
2018-04-24T00:34:23.381Z,11.07
2018-04-24T00:36:50.959Z,13.33
2018-04-24T00:39:18.631Z,11.60
2018-04-24T00:41:46.313Z,11.60
2018-04-24T00:44:13.909Z,12.27
2018-04-24T00:46:41.528Z,12.33
2018-04-24T00:49:09.156Z,11.07
2018-04-24T00:51:36.786Z,13.73
2018-04-24T00:54:04.394Z,12.07
2018-04-24T00:56:32.026Z,10.83
2018-04-24T00:58:59.648Z,12.17
2018-04-24T01:01:27.306Z,11.90
2018-04-24T01:03:54.913Z,12.40
2018-04-24T01:06:22.530Z,11.30
2018-04-24T01:08:50.179Z,11.43
2018-04-24T01:11:17.779Z,13.13
2018-04-24T01:13:45.399Z,12.00
2018-04-24T01:16:12.992Z,12.33
2018-04-24T01:18:40.627Z,14.83
2018-04-24T01:21:08.235Z,13.33
2018-04-24T01:23:35.858Z,12.60
2018-04-24T01:26:03.462Z,14.53
2018-04-24T01:28:31.055Z,13.10
2018-04-24T01:30:58.678Z,13.20
2018-04-24T01:33:26.286Z,13.80
2018-04-24T01:35:53.907Z,14.30
2018-04-24T01:38:21.508Z,14.43
2018-04-24T01:40:49.164Z,15.63
2018-04-24T01:43:16.799Z,13.93
2018-04-24T01:45:44.712Z,13.17
2018-04-24T01:48:12.323Z,14.60
2018-04-24T01:50:39.924Z,14.47
2018-04-24T01:53:07.553Z,13.97
2018-04-24T01:55:36.201Z,14.77
2018-04-24T01:58:03.814Z,14.53
2018-04-24T02:00:31.413Z,14.60
2018-04-24T02:02:59.382Z,16.20
2018-04-24T02:05:26.983Z,14.67
2018-04-24T02:07:54.598Z,15.10
2018-04-24T02:10:22.221Z,14.90
2018-04-24T02:12:49.831Z,16.40
2018-04-24T02:15:18.443Z,16.00
2018-04-24T02:17:46.059Z,16.67
2018-04-24T02:20:13.811Z,14.57
2018-04-24T02:22:41.445Z,15.80
2018-04-24T02:25:09.035Z,14.53
2018-04-24T02:27:36.658Z,14.10
2018-04-24T02:30:04.259Z,14.33
2018-04-24T02:32:31.882Z,15.03
2018-04-24T02:34:59.487Z,14.23
2018-04-24T02:37:27.132Z,13.10
2018-04-24T02:39:54.735Z,13.03
2018-04-24T02:42:22.333Z,14.30
2018-04-24T02:44:49.982Z,12.60
2018-04-24T02:47:17.603Z,14.37
2018-04-24T02:49:45.221Z,13.30
2018-04-24T02:52:12.823Z,14.83
2018-04-24T02:54:40.442Z,12.90
2018-04-24T02:57:08.039Z,13.87
2018-04-24T02:59:35.795Z,13.87
2018-04-24T03:02:03.415Z,14.03
2018-04-24T03:04:31.014Z,12.27
2018-04-24T03:06:58.660Z,12.50
2018-04-24T03:09:26.255Z,14.00
2018-04-24T03:11:53.968Z,13.30
2018-04-24T03:14:21.506Z,14.90
2018-04-24T03:16:49.314Z,14.10
2018-04-24T03:19:16.909Z,14.17
2018-04-24T03:21:44.499Z,12.77
2018-04-24T03:24:12.121Z,15.93
2018-04-24T03:26:39.731Z,13.50
2018-04-24T03:29:07.353Z,12.83
2018-04-24T03:31:36.211Z,13.53
2018-04-24T03:34:04.099Z,12.17
2018-04-24T03:36:31.717Z,12.13
2018-04-24T03:38:59.329Z,12.90
2018-04-24T03:41:26.951Z,13.07
2018-04-24T03:43:54.572Z,14.60
2018-04-24T03:46:22.208Z,12.83
2018-04-24T03:48:49.872Z,13.63
2018-04-24T03:51:17.740Z,13.30
2018-04-24T03:53:45.335Z,13.03
2018-04-24T03:56:12.942Z,13.20
2018-04-24T03:58:40.556Z,12.27
2018-04-24T04:01:08.160Z,12.47
2018-04-24T04:03:35.789Z,12.47
2018-04-24T04:06:03.415Z,13.13
2018-04-24T04:08:31.168Z,13.77
2018-04-24T04:10:58.789Z,12.83
2018-04-24T04:13:26.389Z,14.30
2018-04-24T04:15:54.098Z,14.10
2018-04-24T04:18:33.377Z,14.53
2018-04-24T04:21:12.876Z,13.30
2018-04-24T04:23:52.256Z,13.30
2018-04-24T04:26:19.886Z,13.50
2018-04-24T04:28:49.161Z,13.30
2018-04-24T04:31:16.791Z,13.97
2018-04-24T04:33:44.392Z,13.73
2018-04-24T04:36:12.220Z,12.90
2018-04-24T04:38:39.832Z,12.67
2018-04-24T04:41:07.445Z,14.13
2018-04-24T04:43:35.081Z,13.63
2018-04-24T04:46:02.678Z,13.47
2018-04-24T04:48:30.790Z,14.07
2018-04-24T04:50:58.383Z,13.33
2018-04-24T04:53:25.995Z,13.13
2018-04-24T04:55:53.626Z,13.83
2018-04-24T04:58:21.226Z,14.30
2018-04-24T05:00:48.859Z,15.97
2018-04-24T05:03:16.461Z,14.10
2018-04-24T05:05:44.092Z,14.27
2018-04-24T05:08:11.685Z,15.90
2018-04-24T05:10:39.498Z,14.20
2018-04-24T05:13:07.130Z,13.80
2018-04-24T05:15:34.739Z,13.20
2018-04-24T05:18:02.372Z,13.73
2018-04-24T05:20:29.977Z,13.67
2018-04-24T05:22:57.606Z,14.90
2018-04-24T05:25:25.272Z,13.13
2018-04-24T05:27:52.903Z,12.80
2018-04-24T05:30:20.530Z,13.33
2018-04-24T05:32:48.123Z,12.93
2018-04-24T05:35:15.754Z,13.20
2018-04-24T05:37:43.358Z,11.60
2018-04-24T05:40:10.980Z,12.03
2018-04-24T05:42:38.585Z,12.83
2018-04-24T05:45:06.189Z,12.70
2018-04-24T05:47:33.904Z,12.50
2018-04-24T05:50:01.504Z,12.70
2018-04-24T05:52:29.170Z,13.07
2018-04-24T05:54:56.852Z,12.80
2018-04-24T05:57:24.402Z,12.47
2018-04-24T05:59:52.021Z,12.90
2018-04-24T06:02:19.614Z,12.10
2018-04-24T06:04:47.235Z,10.90
2018-04-24T06:07:14.847Z,11.70
2018-04-24T06:09:42.466Z,12.10
2018-04-24T06:12:10.068Z,12.60
2018-04-24T06:14:38.217Z,10.97
2018-04-24T06:17:05.825Z,10.23
2018-04-24T06:19:33.417Z,9.83
2018-04-24T06:22:01.208Z,10.30
2018-04-24T06:24:28.803Z,8.77
2018-04-24T06:26:56.417Z,10.50
2018-04-24T06:29:24.010Z,8.73
2018-04-24T06:31:51.688Z,10.73
2018-04-24T06:34:19.281Z,9.60
2018-04-24T06:36:46.938Z,7.30
2018-04-24T06:39:14.550Z,7.70
2018-04-24T06:41:42.132Z,8.47
2018-04-24T06:44:09.759Z,8.47
2018-04-24T06:46:37.354Z,7.13
2018-04-24T06:49:05.173Z,7.93
2018-04-24T06:51:32.775Z,8.40
2018-04-24T06:54:00.370Z,7.40
2018-04-24T06:56:27.981Z,7.47
2018-04-24T06:58:55.606Z,7.00
2018-04-24T07:01:23.230Z,6.80
2018-04-24T07:03:51.154Z,6.37
2018-04-24T07:06:19.059Z,6.13
2018-04-24T07:08:46.681Z,6.60
2018-04-24T07:11:14.323Z,6.53
2018-04-24T07:13:41.957Z,5.37
2018-04-24T07:16:09.549Z,6.13
2018-04-24T07:18:37.170Z,5.80
2018-04-24T07:21:04.772Z,5.80
2018-04-24T07:23:32.402Z,6.10
2018-04-24T07:25:59.998Z,6.03
2018-04-24T07:28:27.593Z,6.00
2018-04-24T07:30:55.218Z,5.70
2018-04-24T07:33:22.809Z,6.33
2018-04-24T07:35:50.453Z,5.90
2018-04-24T07:38:18.051Z,6.73
2018-04-24T07:40:45.834Z,6.67
2018-04-24T07:43:13.425Z,7.40
2018-04-24T07:45:41.057Z,5.70
2018-04-24T07:48:08.642Z,6.93
2018-04-24T07:50:36.239Z,7.03
2018-04-24T07:53:07.990Z,6.53
2018-04-24T07:55:35.637Z,8.03
2018-04-24T07:58:03.326Z,6.70
2018-04-24T08:00:30.923Z,7.33
2018-04-24T08:02:58.837Z,7.80
2018-04-24T08:05:26.443Z,6.37
2018-04-24T08:07:54.034Z,7.10
2018-04-24T08:10:21.650Z,6.60
2018-04-24T08:12:49.607Z,7.17
2018-04-24T08:15:17.290Z,8.67
2018-04-24T08:17:44.838Z,6.63
2018-04-24T08:20:12.637Z,5.83
2018-04-24T08:22:40.420Z,6.10
2018-04-24T08:25:08.414Z,6.43
2018-04-24T08:27:36.377Z,6.43
2018-04-24T08:30:04.014Z,6.37
2018-04-24T08:32:31.623Z,5.73
2018-04-24T08:34:59.242Z,5.80
2018-04-24T08:37:26.889Z,6.37
2018-04-24T08:39:54.487Z,5.23
2018-04-24T08:42:22.111Z,4.60
2018-04-24T08:44:50.765Z,5.17
2018-04-24T08:47:18.366Z,5.53
2018-04-24T08:49:46.003Z,5.17
2018-04-24T08:52:13.599Z,5.63
2018-04-24T08:54:41.395Z,5.30
2018-04-24T08:57:09.098Z,5.17
2018-04-24T08:59:36.709Z,5.10
2018-04-24T09:02:04.353Z,5.23
2018-04-24T09:04:32.774Z,4.50
2018-04-24T09:07:00.631Z,4.13
2018-04-24T09:09:28.303Z,4.70
2018-04-24T09:11:56.194Z,4.60
2018-04-24T09:14:23.790Z,4.50
2018-04-24T09:16:51.694Z,5.30
2018-04-24T09:19:19.286Z,5.03
2018-04-24T09:21:46.881Z,4.90
2018-04-24T09:24:14.646Z,4.73
2018-04-24T09:26:42.232Z,4.90
2018-04-24T09:29:09.842Z,5.27
2018-04-24T09:31:42.999Z,4.73
2018-04-24T09:34:10.808Z,4.63
2018-04-24T09:36:38.760Z,6.40
2018-04-24T09:39:06.428Z,5.00
2018-04-24T09:41:34.033Z,5.37
2018-04-24T09:44:01.858Z,4.97
2018-04-24T09:46:29.489Z,5.10
2018-04-24T09:48:57.087Z,5.23
2018-04-24T09:51:25.230Z,5.13
2018-04-24T09:53:52.819Z,5.10
2018-04-24T09:56:20.407Z,5.20
2018-04-24T09:58:48.075Z,6.33
2018-04-24T10:01:15.702Z,6.20
2018-04-24T10:03:43.913Z,4.70
2018-04-24T10:06:12.040Z,4.50
2018-04-24T10:08:39.757Z,4.20
2018-04-24T10:11:07.356Z,4.20
2018-04-24T10:13:35.016Z,5.10
2018-04-24T10:16:02.600Z,6.10
2018-04-24T10:18:30.216Z,6.47
2018-04-24T10:20:58.399Z,4.77
2018-04-24T10:23:27.208Z,4.57
2018-04-24T10:25:55.110Z,3.93
2018-04-24T10:28:23.048Z,7.07
2018-04-24T10:30:50.923Z,4.37
2018-04-24T10:33:18.941Z,6.93
2018-04-24T10:35:46.812Z,4.77
2018-04-24T10:38:14.911Z,4.13
2018-04-24T10:40:42.461Z,5.23
2018-04-24T10:43:10.080Z,4.20
2018-04-24T10:45:37.676Z,4.53
2018-04-24T10:48:05.379Z,5.03
2018-04-24T10:50:32.944Z,4.87
2018-04-24T10:53:00.541Z,4.07
2018-04-24T10:55:28.157Z,4.67
2018-04-24T10:57:55.747Z,7.50
2018-04-24T11:00:23.889Z,4.00
2018-04-24T11:02:51.734Z,4.03
2018-04-24T11:05:19.329Z,4.77
2018-04-24T11:07:46.954Z,7.53
2018-04-24T11:10:14.542Z,5.43
2018-04-24T11:12:42.188Z,3.80
2018-04-24T11:15:09.784Z,4.30
2018-04-24T11:17:37.422Z,4.00
2018-04-24T11:20:05.015Z,4.07
2018-04-24T11:22:32.630Z,4.43
2018-04-24T11:25:00.255Z,4.83
2018-04-24T11:27:27.864Z,5.30
2018-04-24T11:29:55.483Z,4.90
2018-04-24T11:32:23.155Z,3.93
2018-04-24T11:34:50.721Z,3.53
2018-04-24T11:37:18.316Z,4.30
2018-04-24T11:39:45.913Z,4.83
2018-04-24T11:42:13.530Z,3.20
2018-04-24T11:44:41.122Z,4.23
2018-04-24T11:47:08.737Z,4.07
2018-04-24T11:49:36.416Z,4.30
2018-04-24T11:52:04.073Z,3.93
2018-04-24T11:54:31.663Z,3.70
2018-04-24T11:56:59.261Z,3.23
2018-04-24T11:59:27.160Z,4.53
2018-04-24T12:01:54.755Z,4.47
2018-04-24T12:04:22.399Z,4.00
2018-04-24T12:06:49.991Z,3.80
2018-04-24T12:09:17.588Z,5.47
2018-04-24T12:11:45.610Z,4.10
2018-04-24T12:14:13.436Z,5.27
2018-04-24T12:16:41.061Z,4.00
2018-04-24T12:19:08.672Z,4.87
2018-04-24T12:21:36.738Z,4.30
2018-04-24T12:24:04.359Z,4.30
2018-04-24T12:26:32.155Z,4.00
2018-04-24T12:29:01.369Z,4.80
2018-04-24T12:31:30.472Z,5.83
2018-04-24T12:34:00.727Z,4.33
2018-04-24T12:36:28.491Z,5.60
2018-04-24T12:38:56.166Z,5.03
2018-04-24T12:41:23.748Z,5.23
2018-04-24T12:43:51.337Z,4.80
2018-04-24T12:46:19.231Z,4.87
2018-04-24T12:48:46.830Z,5.53
2018-04-24T12:51:14.843Z,6.73
2018-04-24T12:53:42.434Z,5.00
2018-04-24T12:56:10.289Z,4.87
2018-04-24T12:58:37.899Z,4.83
2018-04-24T13:01:05.550Z,5.00
2018-04-24T13:03:33.176Z,4.53
2018-04-24T13:06:00.867Z,4.07
2018-04-24T13:08:28.458Z,4.50
2018-04-24T13:10:56.082Z,4.43
2018-04-24T13:13:24.283Z,4.40
2018-04-24T13:15:59.052Z,4.40
2018-04-24T13:18:26.895Z,3.60
2018-04-24T13:20:54.577Z,4.20
2018-04-24T13:23:22.901Z,3.80
2018-04-24T13:25:51.026Z,3.97
2018-04-24T13:28:18.745Z,4.80
2018-04-24T13:30:46.335Z,4.80
2018-04-24T13:33:13.975Z,3.80
2018-04-24T13:35:41.685Z,4.17
2018-04-24T13:38:09.549Z,4.37
2018-04-24T13:40:37.139Z,4.10
2018-04-24T13:43:04.779Z,4.53
2018-04-24T13:45:32.407Z,4.53
2018-04-24T13:48:00.001Z,4.40
2018-04-24T13:50:27.655Z,4.27
2018-04-24T13:52:55.412Z,4.30
2018-04-24T13:55:23.247Z,4.10
2018-04-24T13:57:50.850Z,4.27
2018-04-24T14:00:18.626Z,4.10
2018-04-24T14:02:46.239Z,5.00
2018-04-24T14:05:13.823Z,4.57
2018-04-24T14:07:41.574Z,4.40
2018-04-24T14:10:09.221Z,3.90
2018-04-24T14:12:36.827Z,3.90
2018-04-24T14:15:04.991Z,3.40
2018-04-24T14:17:32.611Z,4.10
2018-04-24T14:20:00.461Z,4.00
2018-04-24T14:22:28.059Z,3.40
2018-04-24T14:24:56.150Z,4.27
2018-04-24T14:27:23.735Z,3.63
2018-04-24T14:29:51.445Z,3.90
2018-04-24T14:32:19.051Z,4.20
2018-04-24T14:34:46.649Z,3.80
2018-04-24T14:37:14.297Z,3.40
2018-04-24T14:39:41.931Z,5.30
2018-04-24T14:42:09.700Z,3.20
2018-04-24T14:44:37.295Z,3.90
2018-04-24T14:47:04.890Z,4.43
2018-04-24T14:49:32.499Z,3.70
2018-04-24T14:52:00.122Z,4.07
2018-04-24T14:54:27.732Z,4.17
2018-04-24T14:56:55.335Z,4.40
2018-04-24T14:59:22.988Z,4.67
2018-04-24T15:01:50.580Z,3.90
2018-04-24T15:04:18.173Z,3.73
2018-04-24T15:06:45.792Z,3.13
2018-04-24T15:09:13.374Z,3.53
2018-04-24T15:11:44.163Z,3.10
2018-04-24T15:14:12.094Z,3.60
2018-04-24T15:16:40.034Z,3.83
2018-04-24T15:19:07.699Z,3.90
2018-04-24T15:21:35.309Z,3.30
2018-04-24T15:24:02.994Z,3.40
2018-04-24T15:26:30.600Z,3.50
2018-04-24T15:28:58.207Z,3.93
2018-04-24T15:31:25.797Z,3.70
2018-04-24T15:33:53.672Z,4.13
2018-04-24T15:36:21.288Z,3.37
2018-04-24T15:38:48.911Z,3.37
2018-04-24T15:41:16.536Z,3.60
2018-04-24T15:43:44.135Z,4.97
2018-04-24T15:46:11.788Z,4.53
2018-04-24T15:48:39.374Z,3.70
2018-04-24T15:51:07.202Z,4.27
2018-04-24T15:53:34.791Z,4.30
2018-04-24T15:56:02.445Z,3.77
2018-04-24T15:58:30.061Z,3.73
2018-04-24T16:00:57.663Z,3.40
2018-04-24T16:03:25.293Z,6.00
2018-04-24T16:05:52.887Z,3.83
2018-04-24T16:08:20.749Z,3.57
2018-04-24T16:10:48.515Z,4.43
2018-04-24T16:13:16.107Z,5.10
2018-04-24T16:15:43.715Z,3.97
2018-04-24T16:18:11.300Z,3.80
2018-04-24T16:20:38.913Z,4.90
2018-04-24T16:23:06.526Z,4.73
2018-04-24T16:25:34.156Z,4.27
2018-04-24T16:28:01.766Z,4.17
2018-04-24T16:30:29.384Z,5.10
2018-04-24T16:32:57.004Z,4.40
2018-04-24T16:35:24.596Z,4.40
2018-04-24T16:37:52.225Z,4.93
2018-04-24T16:40:19.816Z,4.73
2018-04-24T16:42:47.450Z,4.57
2018-04-24T16:45:15.047Z,4.40
2018-04-24T16:47:42.642Z,4.40
2018-04-24T16:50:10.289Z,5.00
2018-04-24T16:52:37.882Z,6.17
2018-04-24T16:55:05.511Z,4.97
2018-04-24T16:57:33.110Z,12.43
2018-04-24T17:00:00.748Z,5.30
2018-04-24T17:02:28.345Z,6.87
2018-04-24T17:04:55.955Z,4.53
2018-04-24T17:07:23.591Z,5.70
2018-04-24T17:09:51.223Z,7.73
2018-04-24T17:12:18.850Z,18.73
2018-04-24T17:14:46.470Z,26.37
2018-04-24T17:17:14.383Z,15.60
2018-04-24T17:19:41.982Z,17.40
2018-04-24T17:22:09.586Z,14.30
2018-04-24T17:24:37.216Z,22.40
2018-04-24T17:27:04.842Z,9.10
2018-04-24T17:29:32.496Z,9.00
2018-04-24T17:32:00.092Z,11.47
2018-04-24T17:34:27.749Z,9.47
2018-04-24T17:36:55.347Z,12.50
2018-04-24T17:39:22.944Z,13.07
2018-04-24T17:41:50.556Z,9.57
2018-04-24T17:44:18.151Z,8.13
2018-04-24T17:46:45.822Z,6.77
2018-04-24T17:49:13.425Z,6.23
2018-04-24T17:51:41.244Z,6.37
2018-04-24T17:54:09.140Z,6.67
2018-04-24T17:56:36.797Z,7.20
2018-04-24T17:59:04.385Z,7.90
2018-04-24T18:01:31.971Z,6.90
2018-04-24T18:03:59.591Z,9.23
2018-04-24T18:06:27.229Z,8.20
2018-04-24T18:08:54.894Z,7.20
2018-04-24T18:11:22.509Z,5.40
2018-04-24T18:13:50.209Z,6.57
2018-04-24T18:16:17.850Z,6.20
2018-04-24T18:18:46.238Z,6.03
2018-04-24T18:21:13.853Z,5.60
2018-04-24T18:23:41.455Z,5.63
2018-04-24T18:26:09.083Z,5.70
2018-04-24T18:28:36.696Z,6.50
2018-04-24T18:31:04.303Z,6.70
2018-04-24T18:33:31.919Z,5.80
2018-04-24T18:35:59.523Z,6.73
2018-04-24T18:38:27.151Z,6.70
2018-04-24T18:40:54.763Z,6.33
2018-04-24T18:43:22.690Z,7.00
2018-04-24T18:45:50.291Z,5.37
2018-04-24T18:48:17.895Z,6.50
2018-04-24T18:50:45.524Z,6.33
2018-04-24T18:53:13.161Z,7.87
2018-04-24T18:55:40.773Z,9.43
2018-04-24T18:58:08.391Z,15.43
2018-04-24T19:00:36.213Z,12.53
2018-04-24T19:03:03.818Z,18.97
2018-04-24T19:05:31.427Z,20.73
2018-04-24T19:07:59.058Z,34.77
2018-04-24T19:10:26.667Z,35.17
2018-04-24T19:12:54.294Z,36.87
2018-04-24T19:15:21.894Z,41.80
2018-04-24T19:17:49.523Z,46.13
2018-04-24T19:20:17.123Z,40.13
2018-04-24T19:22:44.751Z,30.37
2018-04-24T19:25:17.762Z,24.13
2018-04-24T19:27:45.390Z,20.20
2018-04-24T19:30:12.999Z,16.87
2018-04-24T19:32:40.604Z,14.30
2018-04-24T19:35:08.230Z,15.03
2018-04-24T19:37:35.835Z,14.17
2018-04-24T19:40:09.050Z,13.37
2018-04-24T19:42:36.655Z,11.27
2018-04-24T19:45:04.262Z,11.67
2018-04-24T19:47:31.882Z,9.27
2018-04-24T19:50:05.025Z,10.43
2018-04-24T19:52:32.648Z,9.63
2018-04-24T19:55:05.888Z,8.23
2018-04-24T19:57:33.504Z,7.20
2018-04-24T20:00:01.125Z,7.43
2018-04-24T20:02:28.740Z,7.10
2018-04-24T20:04:56.334Z,7.10
2018-04-24T20:07:24.208Z,7.20
2018-04-24T20:09:51.914Z,7.40
2018-04-24T20:12:19.521Z,7.63
2018-04-24T20:14:47.148Z,7.20
2018-04-24T20:17:14.738Z,7.07
2018-04-24T20:19:42.359Z,7.90
2018-04-24T20:22:09.956Z,7.60
2018-04-24T20:24:37.635Z,8.20
2018-04-24T20:27:05.238Z,9.03
2018-04-24T20:29:32.834Z,7.33
2018-04-24T20:32:00.487Z,8.33
2018-04-24T20:34:28.086Z,7.70
2018-04-24T20:36:55.742Z,7.63
2018-04-24T20:39:23.341Z,6.90
2018-04-24T20:41:50.933Z,6.73
2018-04-24T20:44:18.552Z,6.57
2018-04-24T20:46:46.148Z,7.50
2018-04-24T20:49:13.771Z,6.73
2018-04-24T20:51:41.392Z,6.40
2018-04-24T20:54:09.063Z,7.37
2018-04-24T20:56:36.660Z,7.07
2018-04-24T20:59:04.260Z,6.07
2018-04-24T21:01:31.908Z,6.23
2018-04-24T21:03:59.508Z,7.77
2018-04-24T21:06:27.133Z,6.50
2018-04-24T21:08:54.727Z,7.43
2018-04-24T21:11:22.402Z,7.67
2018-04-24T21:13:50.197Z,6.73
2018-04-24T21:16:17.794Z,7.00
2018-04-24T21:18:45.410Z,6.80
2018-04-24T21:21:13.017Z,7.97
2018-04-24T21:23:40.657Z,7.43
2018-04-24T21:26:08.272Z,6.73
2018-04-24T21:28:36.011Z,7.10
2018-04-24T21:31:03.606Z,6.80
2018-04-24T21:33:31.315Z,5.93
2018-04-24T21:35:58.942Z,7.03
2018-04-24T21:38:26.538Z,7.07
2018-04-24T21:40:54.162Z,7.07
2018-04-24T21:43:21.762Z,7.40
2018-04-24T21:45:49.414Z,7.10
2018-04-24T21:48:17.056Z,7.13
2018-04-24T21:50:44.655Z,7.70
2018-04-24T21:53:12.270Z,7.67
2018-04-24T21:55:39.886Z,6.73
2018-04-24T21:58:07.511Z,7.33
2018-04-24T22:00:35.122Z,8.80
2018-04-24T22:03:02.796Z,7.60
2018-04-24T22:05:30.395Z,7.47
2018-04-24T22:07:57.987Z,8.70
2018-04-24T22:10:25.612Z,7.13
2018-04-24T22:12:53.205Z,7.50
2018-04-24T22:15:20.824Z,7.87
2018-04-24T22:17:48.436Z,7.00
2018-04-24T22:20:16.097Z,8.17
2018-04-24T22:22:43.697Z,6.47
2018-04-24T22:25:11.302Z,8.83
2018-04-24T22:27:38.938Z,8.00
2018-04-24T22:30:06.538Z,7.87
2018-04-24T22:32:34.156Z,7.83
2018-04-24T22:35:01.761Z,7.37
2018-04-24T22:37:29.663Z,8.20
2018-04-24T22:39:57.287Z,6.83
2018-04-24T22:42:24.875Z,7.17
2018-04-24T22:44:52.494Z,7.60
2018-04-24T22:47:20.086Z,8.50
2018-04-24T22:49:47.743Z,7.20
2018-04-24T22:52:15.392Z,8.13
2018-04-24T22:54:43.011Z,8.07
2018-04-24T22:57:10.831Z,8.40
2018-04-24T22:59:38.429Z,9.60
2018-04-24T23:02:06.064Z,7.60
2018-04-24T23:04:33.756Z,7.80
2018-04-24T23:07:01.402Z,8.20
2018-04-24T23:09:28.998Z,7.97
2018-04-24T23:12:08.483Z,7.70
2018-04-24T23:14:47.870Z,7.57
2018-04-24T23:17:27.372Z,9.13
2018-04-24T23:20:06.746Z,6.93
2018-04-24T23:22:34.410Z,9.83
2018-04-24T23:25:02.009Z,8.07
2018-04-24T23:27:29.653Z,8.67
2018-04-24T23:29:57.302Z,7.53
2018-04-24T23:32:24.900Z,8.67
2018-04-24T23:34:52.536Z,7.27
2018-04-24T23:37:20.143Z,8.93
2018-04-24T23:39:47.770Z,8.50
2018-04-24T23:42:15.387Z,7.90
2018-04-24T23:44:43.021Z,8.23
2018-04-24T23:47:10.616Z,9.20
2018-04-24T23:49:38.310Z,8.53
2018-04-24T23:52:05.902Z,8.77
2018-04-24T23:54:33.505Z,8.70
2018-04-24T23:57:01.137Z,10.43
2018-04-24T23:59:28.839Z,7.60
